sensor_id;sensor_type;location;lat;lon;timestamp;temperature;humidity
7958;DHT22;4024;52.172;5.378;2023-03-01T00:01:40;2.20;99.90
7958;DHT22;4024;52.172;5.378;2023-03-01T00:04:05;2.10;99.90
7958;DHT22;4024;52.172;5.378;2023-03-01T00:06:31;2.10;99.90
7958;DHT22;4024;52.172;5.378;2023-03-01T00:08:57;2.10;99.90
7958;DHT22;4024;52.172;5.378;2023-03-01T00:11:25;2.10;99.90
7958;DHT22;4024;52.172;5.378;2023-03-01T00:13:52;2.10;99.90
7958;DHT22;4024;52.172;5.378;2023-03-01T00:16:21;2.00;99.90
7958;DHT22;4024;52.172;5.378;2023-03-01T00:18:47;2.00;99.90
7958;DHT22;4024;52.172;5.378;2023-03-01T00:21:14;2.00;99.90
7958;DHT22;4024;52.172;5.378;2023-03-01T00:23:40;2.00;99.90
7958;DHT22;4024;52.172;5.378;2023-03-01T00:26:07;2.00;99.90
7958;DHT22;4024;52.172;5.378;2023-03-01T00:28:33;1.90;99.90
7958;DHT22;4024;52.172;5.378;2023-03-01T00:31:09;1.90;99.90
7958;DHT22;4024;52.172;5.378;2023-03-01T00:33:35;1.90;99.90
7958;DHT22;4024;52.172;5.378;2023-03-01T00:36:01;1.90;99.90
7958;DHT22;4024;52.172;5.378;2023-03-01T00:38:27;1.90;99.90
7958;DHT22;4024;52.172;5.378;2023-03-01T00:40:53;1.80;99.90
7958;DHT22;4024;52.172;5.378;2023-03-01T00:43:19;1.80;99.90
7958;DHT22;4024;52.172;5.378;2023-03-01T00:45:45;1.80;99.90
7958;DHT22;4024;52.172;5.378;2023-03-01T00:48:10;1.80;99.90
7958;DHT22;4024;52.172;5.378;2023-03-01T00:50:36;1.70;99.90
7958;DHT22;4024;52.172;5.378;2023-03-01T00:53:02;1.70;99.90
7958;DHT22;4024;52.172;5.378;2023-03-01T00:55:27;1.70;99.90
7958;DHT22;4024;52.172;5.378;2023-03-01T00:57:53;1.70;99.90
7958;DHT22;4024;52.172;5.378;2023-03-01T01:00:19;1.70;99.90
7958;DHT22;4024;52.172;5.378;2023-03-01T01:02:46;1.60;99.90
7958;DHT22;4024;52.172;5.378;2023-03-01T01:05:12;1.60;99.90
7958;DHT22;4024;52.172;5.378;2023-03-01T01:07:38;1.60;99.90
7958;DHT22;4024;52.172;5.378;2023-03-01T01:10:04;1.60;99.90
7958;DHT22;4024;52.172;5.378;2023-03-01T01:12:30;1.60;99.90
7958;DHT22;4024;52.172;5.378;2023-03-01T01:14:56;1.50;99.90
7958;DHT22;4024;52.172;5.378;2023-03-01T01:17:21;1.50;99.90
7958;DHT22;4024;52.172;5.378;2023-03-01T01:19:47;1.50;99.90
7958;DHT22;4024;52.172;5.378;2023-03-01T01:22:12;1.50;99.90
7958;DHT22;4024;52.172;5.378;2023-03-01T01:24:38;1.50;99.90
7958;DHT22;4024;52.172;5.378;2023-03-01T01:27:04;1.40;99.90
7958;DHT22;4024;52.172;5.378;2023-03-01T01:29:31;1.40;99.90
7958;DHT22;4024;52.172;5.378;2023-03-01T01:31:56;1.40;99.90
7958;DHT22;4024;52.172;5.378;2023-03-01T01:34:22;1.40;99.90
7958;DHT22;4024;52.172;5.378;2023-03-01T01:36:49;1.30;99.90
7958;DHT22;4024;52.172;5.378;2023-03-01T01:39:16;1.30;99.90
7958;DHT22;4024;52.172;5.378;2023-03-01T01:41:42;1.30;99.90
7958;DHT22;4024;52.172;5.378;2023-03-01T01:44:19;1.30;99.90
7958;DHT22;4024;52.172;5.378;2023-03-01T01:46:55;1.30;99.90
7958;DHT22;4024;52.172;5.378;2023-03-01T01:49:32;1.30;99.90
7958;DHT22;4024;52.172;5.378;2023-03-01T01:52:13;1.20;99.90
7958;DHT22;4024;52.172;5.378;2023-03-01T01:54:43;1.20;99.90
7958;DHT22;4024;52.172;5.378;2023-03-01T01:57:20;1.20;99.90
7958;DHT22;4024;52.172;5.378;2023-03-01T01:59:52;1.20;99.90
7958;DHT22;4024;52.172;5.378;2023-03-01T02:02:19;1.10;99.90
7958;DHT22;4024;52.172;5.378;2023-03-01T02:04:45;1.10;99.90
7958;DHT22;4024;52.172;5.378;2023-03-01T02:07:18;1.10;99.90
7958;DHT22;4024;52.172;5.378;2023-03-01T02:09:47;1.10;99.90
7958;DHT22;4024;52.172;5.378;2023-03-01T02:12:18;1.00;99.90
7958;DHT22;4024;52.172;5.378;2023-03-01T02:14:45;1.00;99.90
7958;DHT22;4024;52.172;5.378;2023-03-01T02:17:12;1.00;99.90
7958;DHT22;4024;52.172;5.378;2023-03-01T02:19:52;1.00;99.90
7958;DHT22;4024;52.172;5.378;2023-03-01T02:22:30;1.00;99.90
7958;DHT22;4024;52.172;5.378;2023-03-01T02:28:47;0.90;99.90
7958;DHT22;4024;52.172;5.378;2023-03-01T02:30:43;0.90;99.90
7958;DHT22;4024;52.172;5.378;2023-03-01T02:33:28;0.90;99.90
7958;DHT22;4024;52.172;5.378;2023-03-01T02:35:59;0.90;99.90
7958;DHT22;4024;52.172;5.378;2023-03-01T02:38:25;0.80;99.90
7958;DHT22;4024;52.172;5.378;2023-03-01T02:40:52;0.80;99.90
7958;DHT22;4024;52.172;5.378;2023-03-01T02:43:19;0.80;99.90
7958;DHT22;4024;52.172;5.378;2023-03-01T02:45:51;0.80;99.90
7958;DHT22;4024;52.172;5.378;2023-03-01T02:48:18;0.70;99.90
7958;DHT22;4024;52.172;5.378;2023-03-01T02:54:29;0.70;99.90
7958;DHT22;4024;52.172;5.378;2023-03-01T02:56:57;0.70;99.90
7958;DHT22;4024;52.172;5.378;2023-03-01T02:59:27;0.70;99.90
7958;DHT22;4024;52.172;5.378;2023-03-01T03:01:54;0.60;99.90
7958;DHT22;4024;52.172;5.378;2023-03-01T03:04:20;0.60;99.90
7958;DHT22;4024;52.172;5.378;2023-03-01T03:06:50;0.60;99.90
7958;DHT22;4024;52.172;5.378;2023-03-01T03:09:17;0.60;99.90
7958;DHT22;4024;52.172;5.378;2023-03-01T03:11:43;0.60;99.90
7958;DHT22;4024;52.172;5.378;2023-03-01T03:14:13;0.60;99.90
7958;DHT22;4024;52.172;5.378;2023-03-01T03:16:48;0.50;99.90
7958;DHT22;4024;52.172;5.378;2023-03-01T03:19:15;0.50;99.90
7958;DHT22;4024;52.172;5.378;2023-03-01T03:21:41;0.50;99.90
7958;DHT22;4024;52.172;5.378;2023-03-01T03:24:07;0.50;99.90
7958;DHT22;4024;52.172;5.378;2023-03-01T03:26:34;0.50;99.90
7958;DHT22;4024;52.172;5.378;2023-03-01T03:29:00;0.50;99.90
7958;DHT22;4024;52.172;5.378;2023-03-01T03:31:26;0.40;99.90
7958;DHT22;4024;52.172;5.378;2023-03-01T03:33:52;0.40;99.90
7958;DHT22;4024;52.172;5.378;2023-03-01T03:36:23;0.40;99.90
7958;DHT22;4024;52.172;5.378;2023-03-01T03:38:49;0.40;99.90
7958;DHT22;4024;52.172;5.378;2023-03-01T03:41:15;0.30;99.90
7958;DHT22;4024;52.172;5.378;2023-03-01T03:43:42;0.40;99.90
7958;DHT22;4024;52.172;5.378;2023-03-01T03:46:10;0.40;99.90
7958;DHT22;4024;52.172;5.378;2023-03-01T03:48:43;0.30;99.90
7958;DHT22;4024;52.172;5.378;2023-03-01T03:51:14;0.30;99.90
7958;DHT22;4024;52.172;5.378;2023-03-01T03:53:40;0.30;99.90
7958;DHT22;4024;52.172;5.378;2023-03-01T03:56:06;0.30;99.90
7958;DHT22;4024;52.172;5.378;2023-03-01T03:58:32;0.30;99.90
7958;DHT22;4024;52.172;5.378;2023-03-01T04:00:58;0.30;99.90
7958;DHT22;4024;52.172;5.378;2023-03-01T04:03:27;0.30;99.90
7958;DHT22;4024;52.172;5.378;2023-03-01T04:05:53;0.20;99.90
7958;DHT22;4024;52.172;5.378;2023-03-01T04:08:21;0.20;99.90
7958;DHT22;4024;52.172;5.378;2023-03-01T04:10:52;0.20;99.90
7958;DHT22;4024;52.172;5.378;2023-03-01T04:13:20;0.20;99.90
7958;DHT22;4024;52.172;5.378;2023-03-01T04:15:52;0.20;99.90
7958;DHT22;4024;52.172;5.378;2023-03-01T04:18:20;0.20;99.90
7958;DHT22;4024;52.172;5.378;2023-03-01T04:20:46;0.10;99.90
7958;DHT22;4024;52.172;5.378;2023-03-01T04:25:55;0.10;99.90
7958;DHT22;4024;52.172;5.378;2023-03-01T04:30:55;0.10;99.90
7958;DHT22;4024;52.172;5.378;2023-03-01T04:33:21;0.10;99.90
7958;DHT22;4024;52.172;5.378;2023-03-01T04:35:47;0.00;99.90
7958;DHT22;4024;52.172;5.378;2023-03-01T04:38:17;0.00;99.90
7958;DHT22;4024;52.172;5.378;2023-03-01T04:40:43;0.00;99.90
7958;DHT22;4024;52.172;5.378;2023-03-01T04:43:09;0.00;99.90
7958;DHT22;4024;52.172;5.378;2023-03-01T04:45:35;0.00;99.90
7958;DHT22;4024;52.172;5.378;2023-03-01T04:48:02;0.00;99.90
7958;DHT22;4024;52.172;5.378;2023-03-01T04:50:28;0.00;99.90
7958;DHT22;4024;52.172;5.378;2023-03-01T04:52:54;0.00;99.90
7958;DHT22;4024;52.172;5.378;2023-03-01T04:55:26;0.00;99.90
7958;DHT22;4024;52.172;5.378;2023-03-01T04:57:53;-0.10;99.90
7958;DHT22;4024;52.172;5.378;2023-03-01T05:00:19;-0.10;99.90
7958;DHT22;4024;52.172;5.378;2023-03-01T05:03:00;-0.10;99.90
7958;DHT22;4024;52.172;5.378;2023-03-01T05:05:32;-0.10;99.90
7958;DHT22;4024;52.172;5.378;2023-03-01T05:08:00;-0.10;99.90
7958;DHT22;4024;52.172;5.378;2023-03-01T05:10:27;-0.20;99.90
7958;DHT22;4024;52.172;5.378;2023-03-01T05:12:55;-0.20;99.90
7958;DHT22;4024;52.172;5.378;2023-03-01T05:15:23;-0.20;99.90
7958;DHT22;4024;52.172;5.378;2023-03-01T05:17:51;-0.20;99.90
7958;DHT22;4024;52.172;5.378;2023-03-01T05:20:17;-0.20;99.90
7958;DHT22;4024;52.172;5.378;2023-03-01T05:22:42;-0.20;99.90
7958;DHT22;4024;52.172;5.378;2023-03-01T05:25:08;-0.20;99.90
7958;DHT22;4024;52.172;5.378;2023-03-01T05:27:34;-0.30;99.90
7958;DHT22;4024;52.172;5.378;2023-03-01T05:30:00;-0.30;99.90
7958;DHT22;4024;52.172;5.378;2023-03-01T05:32:39;-0.30;99.90
7958;DHT22;4024;52.172;5.378;2023-03-01T05:35:05;-0.30;99.90
7958;DHT22;4024;52.172;5.378;2023-03-01T05:37:31;-0.30;99.90
7958;DHT22;4024;52.172;5.378;2023-03-01T05:39:56;-0.30;99.90
7958;DHT22;4024;52.172;5.378;2023-03-01T05:42:22;-0.30;99.90
7958;DHT22;4024;52.172;5.378;2023-03-01T05:44:48;-0.30;99.90
7958;DHT22;4024;52.172;5.378;2023-03-01T05:47:13;-0.30;99.90
7958;DHT22;4024;52.172;5.378;2023-03-01T05:49:39;-0.40;99.90
7958;DHT22;4024;52.172;5.378;2023-03-01T05:52:04;-0.40;99.90
7958;DHT22;4024;52.172;5.378;2023-03-01T05:54:30;-0.40;99.90
7958;DHT22;4024;52.172;5.378;2023-03-01T05:56:56;-0.40;99.90
7958;DHT22;4024;52.172;5.378;2023-03-01T05:59:21;-0.40;99.90
7958;DHT22;4024;52.172;5.378;2023-03-01T06:01:47;-0.40;99.90
7958;DHT22;4024;52.172;5.378;2023-03-01T06:04:12;-0.40;99.90
7958;DHT22;4024;52.172;5.378;2023-03-01T06:06:38;-0.40;99.90
7958;DHT22;4024;52.172;5.378;2023-03-01T06:09:05;-0.40;99.90
7958;DHT22;4024;52.172;5.378;2023-03-01T06:11:34;-0.50;99.90
7958;DHT22;4024;52.172;5.378;2023-03-01T06:13:59;-0.50;99.90
7958;DHT22;4024;52.172;5.378;2023-03-01T06:16:25;-0.50;99.90
7958;DHT22;4024;52.172;5.378;2023-03-01T06:18:50;-0.50;99.90
7958;DHT22;4024;52.172;5.378;2023-03-01T06:21:16;-0.50;99.90
7958;DHT22;4024;52.172;5.378;2023-03-01T06:23:42;-0.50;99.90
7958;DHT22;4024;52.172;5.378;2023-03-01T06:26:08;-0.50;99.90
7958;DHT22;4024;52.172;5.378;2023-03-01T06:28:35;-0.50;99.90
7958;DHT22;4024;52.172;5.378;2023-03-01T06:31:00;-0.50;99.90
7958;DHT22;4024;52.172;5.378;2023-03-01T06:33:26;-0.60;99.90
7958;DHT22;4024;52.172;5.378;2023-03-01T06:35:54;-0.60;99.90
7958;DHT22;4024;52.172;5.378;2023-03-01T06:38:22;-0.60;99.90
7958;DHT22;4024;52.172;5.378;2023-03-01T06:40:54;-0.60;99.90
7958;DHT22;4024;52.172;5.378;2023-03-01T06:43:22;-0.60;99.90
7958;DHT22;4024;52.172;5.378;2023-03-01T06:45:48;-0.60;99.90
7958;DHT22;4024;52.172;5.378;2023-03-01T06:48:14;-0.60;99.90
7958;DHT22;4024;52.172;5.378;2023-03-01T06:50:39;-0.60;99.90
7958;DHT22;4024;52.172;5.378;2023-03-01T06:53:05;-0.60;99.90
7958;DHT22;4024;52.172;5.378;2023-03-01T06:55:31;-0.60;99.90
7958;DHT22;4024;52.172;5.378;2023-03-01T06:57:58;-0.60;99.90
7958;DHT22;4024;52.172;5.378;2023-03-01T07:00:25;-0.60;99.90
7958;DHT22;4024;52.172;5.378;2023-03-01T07:02:51;-0.60;99.90
7958;DHT22;4024;52.172;5.378;2023-03-01T07:05:16;-0.60;99.90
7958;DHT22;4024;52.172;5.378;2023-03-01T07:07:42;-0.50;99.90
7958;DHT22;4024;52.172;5.378;2023-03-01T07:10:08;-0.60;99.90
7958;DHT22;4024;52.172;5.378;2023-03-01T07:12:36;-0.50;99.90
7958;DHT22;4024;52.172;5.378;2023-03-01T07:15:03;-0.50;99.90
7958;DHT22;4024;52.172;5.378;2023-03-01T07:17:29;-0.50;99.90
7958;DHT22;4024;52.172;5.378;2023-03-01T07:19:54;-0.50;99.90
7958;DHT22;4024;52.172;5.378;2023-03-01T07:22:20;-0.50;99.90
7958;DHT22;4024;52.172;5.378;2023-03-01T07:24:45;-0.50;99.90
7958;DHT22;4024;52.172;5.378;2023-03-01T07:27:11;-0.40;99.90
7958;DHT22;4024;52.172;5.378;2023-03-01T07:29:37;-0.40;99.90
7958;DHT22;4024;52.172;5.378;2023-03-01T07:32:03;-0.40;99.90
7958;DHT22;4024;52.172;5.378;2023-03-01T07:34:29;-0.40;99.90
7958;DHT22;4024;52.172;5.378;2023-03-01T07:36:55;-0.40;99.90
7958;DHT22;4024;52.172;5.378;2023-03-01T07:39:20;-0.40;99.90
7958;DHT22;4024;52.172;5.378;2023-03-01T07:41:48;-0.30;99.90
7958;DHT22;4024;52.172;5.378;2023-03-01T07:44:14;-0.30;99.90
7958;DHT22;4024;52.172;5.378;2023-03-01T07:46:40;-0.30;99.90
7958;DHT22;4024;52.172;5.378;2023-03-01T07:49:06;-0.30;99.90
7958;DHT22;4024;52.172;5.378;2023-03-01T07:51:32;-0.30;99.90
7958;DHT22;4024;52.172;5.378;2023-03-01T07:53:57;-0.20;99.90
7958;DHT22;4024;52.172;5.378;2023-03-01T07:56:23;-0.20;99.90
7958;DHT22;4024;52.172;5.378;2023-03-01T07:58:48;-0.20;99.90
7958;DHT22;4024;52.172;5.378;2023-03-01T08:01:17;-0.10;99.90
7958;DHT22;4024;52.172;5.378;2023-03-01T08:03:42;-0.10;99.90
7958;DHT22;4024;52.172;5.378;2023-03-01T08:06:10;-0.10;99.90
7958;DHT22;4024;52.172;5.378;2023-03-01T08:08:35;0.00;99.90
7958;DHT22;4024;52.172;5.378;2023-03-01T08:11:03;0.00;99.90
7958;DHT22;4024;52.172;5.378;2023-03-01T08:13:29;0.00;99.90
7958;DHT22;4024;52.172;5.378;2023-03-01T08:16:03;0.00;99.90
7958;DHT22;4024;52.172;5.378;2023-03-01T08:18:29;0.00;99.90
7958;DHT22;4024;52.172;5.378;2023-03-01T08:20:55;0.10;99.90
7958;DHT22;4024;52.172;5.378;2023-03-01T08:23:21;0.10;99.90
7958;DHT22;4024;52.172;5.378;2023-03-01T08:25:47;0.20;99.90
7958;DHT22;4024;52.172;5.378;2023-03-01T08:28:12;0.20;99.90
7958;DHT22;4024;52.172;5.378;2023-03-01T08:30:38;0.30;99.90
7958;DHT22;4024;52.172;5.378;2023-03-01T08:33:03;0.30;99.90
7958;DHT22;4024;52.172;5.378;2023-03-01T08:35:29;0.30;99.90
7958;DHT22;4024;52.172;5.378;2023-03-01T08:37:54;0.40;99.90
7958;DHT22;4024;52.172;5.378;2023-03-01T08:40:20;0.50;99.90
7958;DHT22;4024;52.172;5.378;2023-03-01T08:42:45;0.50;99.90
7958;DHT22;4024;52.172;5.378;2023-03-01T08:45:12;0.60;99.90
7958;DHT22;4024;52.172;5.378;2023-03-01T08:47:39;0.70;99.90
7958;DHT22;4024;52.172;5.378;2023-03-01T08:50:05;0.70;99.90
7958;DHT22;4024;52.172;5.378;2023-03-01T08:52:32;0.80;99.90
7958;DHT22;4024;52.172;5.378;2023-03-01T08:54:58;0.80;99.90
7958;DHT22;4024;52.172;5.378;2023-03-01T08:57:23;0.90;99.90
7958;DHT22;4024;52.172;5.378;2023-03-01T08:59:49;1.00;99.90
7958;DHT22;4024;52.172;5.378;2023-03-01T09:02:16;1.10;99.90
7958;DHT22;4024;52.172;5.378;2023-03-01T09:04:42;1.20;99.90
7958;DHT22;4024;52.172;5.378;2023-03-01T09:07:08;1.30;99.90
7958;DHT22;4024;52.172;5.378;2023-03-01T09:09:34;1.40;99.90
7958;DHT22;4024;52.172;5.378;2023-03-01T09:12:01;1.50;99.90
7958;DHT22;4024;52.172;5.378;2023-03-01T09:14:28;1.70;99.90
7958;DHT22;4024;52.172;5.378;2023-03-01T09:16:54;1.80;99.90
7958;DHT22;4024;52.172;5.378;2023-03-01T09:19:20;1.90;99.90
7958;DHT22;4024;52.172;5.378;2023-03-01T09:21:46;2.10;99.90
7958;DHT22;4024;52.172;5.378;2023-03-01T09:24:20;2.20;99.90
7958;DHT22;4024;52.172;5.378;2023-03-01T09:26:46;2.30;99.90
7958;DHT22;4024;52.172;5.378;2023-03-01T09:29:13;2.50;99.90
7958;DHT22;4024;52.172;5.378;2023-03-01T09:31:38;2.50;99.90
7958;DHT22;4024;52.172;5.378;2023-03-01T09:34:05;2.70;99.90
7958;DHT22;4024;52.172;5.378;2023-03-01T09:36:31;2.80;99.90
7958;DHT22;4024;52.172;5.378;2023-03-01T09:38:57;2.90;99.90
7958;DHT22;4024;52.172;5.378;2023-03-01T09:42:04;3.00;99.90
7958;DHT22;4024;52.172;5.378;2023-03-01T09:44:48;3.10;99.90
7958;DHT22;4024;52.172;5.378;2023-03-01T09:47:21;3.20;99.90
7958;DHT22;4024;52.172;5.378;2023-03-01T09:50:04;3.40;99.90
7958;DHT22;4024;52.172;5.378;2023-03-01T09:52:44;3.50;99.90
7958;DHT22;4024;52.172;5.378;2023-03-01T09:55:14;3.60;99.90
7958;DHT22;4024;52.172;5.378;2023-03-01T10:00:50;3.80;99.90
7958;DHT22;4024;52.172;5.378;2023-03-01T10:03:34;3.90;99.90
7958;DHT22;4024;52.172;5.378;2023-03-01T10:08:42;4.10;99.90
7958;DHT22;4024;52.172;5.378;2023-03-01T10:11:33;4.30;99.90
7958;DHT22;4024;52.172;5.378;2023-03-01T10:14:15;4.40;99.90
7958;DHT22;4024;52.172;5.378;2023-03-01T10:16:54;4.40;99.90
7958;DHT22;4024;52.172;5.378;2023-03-01T10:19:43;4.50;99.90
7958;DHT22;4024;52.172;5.378;2023-03-01T10:22:14;4.60;99.90
7958;DHT22;4024;52.172;5.378;2023-03-01T10:24:40;4.70;99.90
7958;DHT22;4024;52.172;5.378;2023-03-01T10:30:05;4.80;99.90
7958;DHT22;4024;52.172;5.378;2023-03-01T10:32:33;4.90;99.90
7958;DHT22;4024;52.172;5.378;2023-03-01T10:34:58;5.00;99.90
7958;DHT22;4024;52.172;5.378;2023-03-01T10:37:24;5.10;99.90
7958;DHT22;4024;52.172;5.378;2023-03-01T10:39:57;5.10;99.90
7958;DHT22;4024;52.172;5.378;2023-03-01T10:42:29;5.20;99.90
7958;DHT22;4024;52.172;5.378;2023-03-01T10:44:56;5.30;99.90
7958;DHT22;4024;52.172;5.378;2023-03-01T10:47:27;5.30;99.90
7958;DHT22;4024;52.172;5.378;2023-03-01T10:49:54;5.30;99.90
7958;DHT22;4024;52.172;5.378;2023-03-01T10:52:57;5.40;99.90
7958;DHT22;4024;52.172;5.378;2023-03-01T10:55:30;5.40;99.90
7958;DHT22;4024;52.172;5.378;2023-03-01T10:58:19;5.50;99.90
7958;DHT22;4024;52.172;5.378;2023-03-01T11:03:27;5.60;99.90
7958;DHT22;4024;52.172;5.378;2023-03-01T11:05:55;5.60;99.90
7958;DHT22;4024;52.172;5.378;2023-03-01T11:08:40;5.70;99.90
7958;DHT22;4024;52.172;5.378;2023-03-01T11:13:35;5.80;99.90
7958;DHT22;4024;52.172;5.378;2023-03-01T11:16:07;5.80;99.90
7958;DHT22;4024;52.172;5.378;2023-03-01T11:18:35;5.90;99.90
7958;DHT22;4024;52.172;5.378;2023-03-01T11:21:01;5.90;99.90
7958;DHT22;4024;52.172;5.378;2023-03-01T11:23:30;6.00;99.90
7958;DHT22;4024;52.172;5.378;2023-03-01T11:26:01;6.00;99.90
7958;DHT22;4024;52.172;5.378;2023-03-01T11:28:29;6.00;99.90
7958;DHT22;4024;52.172;5.378;2023-03-01T11:31:06;6.10;99.90
7958;DHT22;4024;52.172;5.378;2023-03-01T11:33:47;6.10;99.90
7958;DHT22;4024;52.172;5.378;2023-03-01T11:39:04;6.20;99.90
7958;DHT22;4024;52.172;5.378;2023-03-01T11:41:33;6.20;99.90
7958;DHT22;4024;52.172;5.378;2023-03-01T11:44:16;6.20;99.90
7958;DHT22;4024;52.172;5.378;2023-03-01T11:46:59;6.30;99.90
7958;DHT22;4024;52.172;5.378;2023-03-01T11:55:36;6.50;99.90
7958;DHT22;4024;52.172;5.378;2023-03-01T11:58:40;6.50;99.90
7958;DHT22;4024;52.172;5.378;2023-03-01T12:13:06;6.80;99.90
7958;DHT22;4024;52.172;5.378;2023-03-01T12:15:45;6.90;99.90
7958;DHT22;4024;52.172;5.378;2023-03-01T12:28:51;7.10;99.90
7958;DHT22;4024;52.172;5.378;2023-03-01T12:34:25;7.10;99.90
7958;DHT22;4024;52.172;5.378;2023-03-01T12:42:36;7.20;99.90
7958;DHT22;4024;52.172;5.378;2023-03-01T12:50:58;7.40;99.90
7958;DHT22;4024;52.172;5.378;2023-03-01T12:53:28;7.40;99.90
7958;DHT22;4024;52.172;5.378;2023-03-01T12:55:59;7.50;99.90
7958;DHT22;4024;52.172;5.378;2023-03-01T12:58:59;7.50;99.90
7958;DHT22;4024;52.172;5.378;2023-03-01T13:01:59;7.50;99.90
7958;DHT22;4024;52.172;5.378;2023-03-01T13:12:49;7.60;99.90
7958;DHT22;4024;52.172;5.378;2023-03-01T13:15:35;7.70;99.90
7958;DHT22;4024;52.172;5.378;2023-03-01T13:18:04;7.70;99.90
7958;DHT22;4024;52.172;5.378;2023-03-01T13:20:44;7.70;99.10
7958;DHT22;4024;52.172;5.378;2023-03-01T13:26:13;7.80;98.40
7958;DHT22;4024;52.172;5.378;2023-03-01T13:33:46;7.90;99.00
7958;DHT22;4024;52.172;5.378;2023-03-01T13:39:18;7.90;99.40
7958;DHT22;4024;52.172;5.378;2023-03-01T13:41:53;8.00;99.50
7958;DHT22;4024;52.172;5.378;2023-03-01T13:44:35;8.00;98.70
7958;DHT22;4024;52.172;5.378;2023-03-01T13:47:16;8.00;98.60
7958;DHT22;4024;52.172;5.378;2023-03-01T13:49:49;8.10;98.90
7958;DHT22;4024;52.172;5.378;2023-03-01T13:53:02;8.10;98.40
7958;DHT22;4024;52.172;5.378;2023-03-01T13:55:44;8.10;98.60
7958;DHT22;4024;52.172;5.378;2023-03-01T13:58:27;8.10;98.10
7958;DHT22;4024;52.172;5.378;2023-03-01T14:00:57;8.10;97.80
7958;DHT22;4024;52.172;5.378;2023-03-01T14:03:23;8.20;98.30
7958;DHT22;4024;52.172;5.378;2023-03-01T14:08:29;8.20;97.40
7958;DHT22;4024;52.172;5.378;2023-03-01T14:19:21;8.40;97.50
7958;DHT22;4024;52.172;5.378;2023-03-01T14:22:43;8.40;97.50
7958;DHT22;4024;52.172;5.378;2023-03-01T14:24:48;8.40;97.10
7958;DHT22;4024;52.172;5.378;2023-03-01T14:27:14;8.40;97.00
7958;DHT22;4024;52.172;5.378;2023-03-01T14:29:41;8.40;97.00
7958;DHT22;4024;52.172;5.378;2023-03-01T14:32:21;8.50;96.90
7958;DHT22;4024;52.172;5.378;2023-03-01T14:34:49;8.50;96.50
7958;DHT22;4024;52.172;5.378;2023-03-01T14:39:45;8.50;95.80
7958;DHT22;4024;52.172;5.378;2023-03-01T14:42:13;8.50;96.20
7958;DHT22;4024;52.172;5.378;2023-03-01T14:44:42;8.60;96.20
7958;DHT22;4024;52.172;5.378;2023-03-01T14:47:14;8.60;96.50
7958;DHT22;4024;52.172;5.378;2023-03-01T14:49:41;8.60;96.00
7958;DHT22;4024;52.172;5.378;2023-03-01T14:52:18;8.60;96.10
7958;DHT22;4024;52.172;5.378;2023-03-01T14:54:48;8.60;96.20
7958;DHT22;4024;52.172;5.378;2023-03-01T14:57:25;8.60;96.20
7958;DHT22;4024;52.172;5.378;2023-03-01T14:59:54;8.60;96.40
7958;DHT22;4024;52.172;5.378;2023-03-01T15:02:24;8.70;95.90
7958;DHT22;4024;52.172;5.378;2023-03-01T15:04:54;8.70;95.30
7958;DHT22;4024;52.172;5.378;2023-03-01T15:07:24;8.70;94.30
7958;DHT22;4024;52.172;5.378;2023-03-01T15:09:51;8.70;95.00
7958;DHT22;4024;52.172;5.378;2023-03-01T15:12:36;8.70;95.20
7958;DHT22;4024;52.172;5.378;2023-03-01T15:15:20;8.70;95.20
7958;DHT22;4024;52.172;5.378;2023-03-01T15:17:51;8.70;94.60
7958;DHT22;4024;52.172;5.378;2023-03-01T15:20:19;8.80;94.30
7958;DHT22;4024;52.172;5.378;2023-03-01T15:22:47;8.80;94.60
7958;DHT22;4024;52.172;5.378;2023-03-01T15:25:18;8.80;94.80
7958;DHT22;4024;52.172;5.378;2023-03-01T15:27:46;8.70;94.60
7958;DHT22;4024;52.172;5.378;2023-03-01T15:30:36;8.80;95.30
7958;DHT22;4024;52.172;5.378;2023-03-01T15:35:54;8.80;95.70
7958;DHT22;4024;52.172;5.378;2023-03-01T15:38:29;8.80;96.20
7958;DHT22;4024;52.172;5.378;2023-03-01T15:40:56;8.90;95.60
7958;DHT22;4024;52.172;5.378;2023-03-01T15:43:45;8.90;95.50
7958;DHT22;4024;52.172;5.378;2023-03-01T15:46:21;8.80;95.50
7958;DHT22;4024;52.172;5.378;2023-03-01T15:48:52;8.80;95.30
7958;DHT22;4024;52.172;5.378;2023-03-01T15:51:29;8.80;95.40
7958;DHT22;4024;52.172;5.378;2023-03-01T15:53:56;8.80;95.50
7958;DHT22;4024;52.172;5.378;2023-03-01T15:56:23;8.80;95.20
7958;DHT22;4024;52.172;5.378;2023-03-01T15:58:49;8.80;95.10
7958;DHT22;4024;52.172;5.378;2023-03-01T16:01:15;8.80;94.90
7958;DHT22;4024;52.172;5.378;2023-03-01T16:03:45;8.90;95.20
7958;DHT22;4024;52.172;5.378;2023-03-01T16:06:11;8.80;95.00
7958;DHT22;4024;52.172;5.378;2023-03-01T16:08:38;8.80;95.10
7958;DHT22;4024;52.172;5.378;2023-03-01T16:11:05;8.80;95.00
7958;DHT22;4024;52.172;5.378;2023-03-01T16:13:31;8.80;94.90
7958;DHT22;4024;52.172;5.378;2023-03-01T16:15:58;8.70;95.20
7958;DHT22;4024;52.172;5.378;2023-03-01T16:18:24;8.70;95.00
7958;DHT22;4024;52.172;5.378;2023-03-01T16:20:49;8.70;95.00
7958;DHT22;4024;52.172;5.378;2023-03-01T16:23:15;8.70;95.40
7958;DHT22;4024;52.172;5.378;2023-03-01T16:25:41;8.70;95.20
7958;DHT22;4024;52.172;5.378;2023-03-01T16:28:07;8.70;95.40
7958;DHT22;4024;52.172;5.378;2023-03-01T16:30:39;8.70;95.50
7958;DHT22;4024;52.172;5.378;2023-03-01T16:33:05;8.60;95.70
7958;DHT22;4024;52.172;5.378;2023-03-01T16:35:33;8.60;95.80
7958;DHT22;4024;52.172;5.378;2023-03-01T16:37:59;8.60;95.80
7958;DHT22;4024;52.172;5.378;2023-03-01T16:40:27;8.60;96.00
7958;DHT22;4024;52.172;5.378;2023-03-01T16:42:54;8.60;96.10
7958;DHT22;4024;52.172;5.378;2023-03-01T16:45:26;8.50;96.30
7958;DHT22;4024;52.172;5.378;2023-03-01T16:47:52;8.50;96.40
7958;DHT22;4024;52.172;5.378;2023-03-01T16:50:18;8.40;96.30
7958;DHT22;4024;52.172;5.378;2023-03-01T16:52:44;8.40;96.50
7958;DHT22;4024;52.172;5.378;2023-03-01T16:55:10;8.40;96.60
7958;DHT22;4024;52.172;5.378;2023-03-01T16:57:37;8.40;96.70
7958;DHT22;4024;52.172;5.378;2023-03-01T17:00:05;8.40;96.70
7958;DHT22;4024;52.172;5.378;2023-03-01T17:02:36;8.30;96.80
7958;DHT22;4024;52.172;5.378;2023-03-01T17:05:02;8.30;97.00
7958;DHT22;4024;52.172;5.378;2023-03-01T17:07:32;8.20;97.10
7958;DHT22;4024;52.172;5.378;2023-03-01T17:09:59;8.20;96.90
7958;DHT22;4024;52.172;5.378;2023-03-01T17:12:25;8.10;97.00
7958;DHT22;4024;52.172;5.378;2023-03-01T17:14:50;8.10;97.40
7958;DHT22;4024;52.172;5.378;2023-03-01T17:17:16;8.10;97.40
7958;DHT22;4024;52.172;5.378;2023-03-01T17:19:42;8.00;97.60
7958;DHT22;4024;52.172;5.378;2023-03-01T17:22:10;8.00;97.70
7958;DHT22;4024;52.172;5.378;2023-03-01T17:24:39;7.90;97.90
7958;DHT22;4024;52.172;5.378;2023-03-01T17:27:06;7.90;98.00
7958;DHT22;4024;52.172;5.378;2023-03-01T17:29:50;7.80;98.30
7958;DHT22;4024;52.172;5.378;2023-03-01T17:32:16;7.80;98.20
7958;DHT22;4024;52.172;5.378;2023-03-01T17:34:50;7.70;98.20
7958;DHT22;4024;52.172;5.378;2023-03-01T17:37:16;7.70;98.20
7958;DHT22;4024;52.172;5.378;2023-03-01T17:39:41;7.60;98.30
7958;DHT22;4024;52.172;5.378;2023-03-01T17:42:07;7.60;98.40
7958;DHT22;4024;52.172;5.378;2023-03-01T17:44:33;7.60;98.40
7958;DHT22;4024;52.172;5.378;2023-03-01T17:47:00;7.60;98.50
7958;DHT22;4024;52.172;5.378;2023-03-01T17:49:25;7.50;98.50
7958;DHT22;4024;52.172;5.378;2023-03-01T17:51:51;7.50;98.80
7958;DHT22;4024;52.172;5.378;2023-03-01T17:54:16;7.40;98.70
7958;DHT22;4024;52.172;5.378;2023-03-01T17:56:42;7.40;98.80
7958;DHT22;4024;52.172;5.378;2023-03-01T17:59:07;7.40;99.00
7958;DHT22;4024;52.172;5.378;2023-03-01T18:01:33;7.40;99.10
7958;DHT22;4024;52.172;5.378;2023-03-01T18:04:00;7.30;99.10
7958;DHT22;4024;52.172;5.378;2023-03-01T18:06:27;7.30;99.30
7958;DHT22;4024;52.172;5.378;2023-03-01T18:08:53;7.20;99.30
7958;DHT22;4024;52.172;5.378;2023-03-01T18:11:20;7.20;99.40
7958;DHT22;4024;52.172;5.378;2023-03-01T18:13:49;7.20;99.40
7958;DHT22;4024;52.172;5.378;2023-03-01T18:16:17;7.10;99.60